Search for airport 
image banner adimage banner adimage banner ad
image banner ad

34CL - Burney Service Center

Located in Burney, United States

ICAO - 34CL, IATA -

Data provided by Airmate  

General information

Coordinates: N40°53'37" W121°39'5"
Elevation is 3116 feet MSL.
Magnetic variation is 17° East
View others Airports in California

Operational data

Special qualification required
Current time UTC:
Current local time:
Weather at : KRDD - Redding Muni ( 69 km )
METAR: KRDD 210953Z 00000KT 10SM CLR 23/06 A2979 RMK AO2 SLP079 T02280061
TAF: KRDD 210520Z 2106/2206 VRB05KT P6SM SKC FM211900 19006KT P6SM BKN250 FM212200 18017G23KT P6SM SCT250
View NOTAMs / SUP AIP / TFR affecting this airport [VIEW]
Communications frequencies: [VIEW]

Runways:

Airport contact information

Address: Burney United States

Satellite view of 34CL